Blanco, Texas
Current Conditions -  °F | °C
As of 11:15 PM on Monday 20 Oct 2014 (Local Time) from KDZB Reporting Station
Clear Clear  
Wind Chill: 65°   Ceiling: Unl
Heat Index: 65°   Visibility: 10mi
Dew Point: 57°   Wind: 3mph
Humidity: 76%   Direction: 150°SSE
Pressure: 30.06"   Gusts: NA
Location:  30.1°N, 98.42°W
Report Text: KDZB 210415Z AUTO 15003KT 10SM CLR 18/14 A3006 RMK AO2 T01830140
Loading
Personal Weather Stations






























Interactive Weather Map New forecast layout! Learn more

10-Day Weather Forecast

Advertisements
Track Severe Weather on mobile